sensor_id;sensor_type;location;lat;lon;timestamp;P1;durP1;ratioP1;P2;durP2;ratioP2
25609;SDS011;13479;49.044;8.716;2022-11-12T05:03:07;22.33;;;6.50;;
25609;SDS011;13479;49.044;8.716;2022-11-12T05:05:32;32.07;;;7.47;;
25609;SDS011;13479;49.044;8.716;2022-11-12T05:08:00;22.37;;;6.40;;
25609;SDS011;13479;49.044;8.716;2022-11-12T05:10:26;32.30;;;8.17;;
25609;SDS011;13479;49.044;8.716;2022-11-12T05:12:51;37.97;;;7.70;;
25609;SDS011;13479;49.044;8.716;2022-11-12T05:15:16;32.27;;;8.20;;
25609;SDS011;13479;49.044;8.716;2022-11-12T05:17:42;18.90;;;7.13;;
25609;SDS011;13479;49.044;8.716;2022-11-12T05:20:09;24.10;;;6.73;;
25609;SDS011;13479;49.044;8.716;2022-11-12T05:22:35;15.00;;;5.90;;
25609;SDS011;13479;49.044;8.716;2022-11-12T05:25:00;43.40;;;7.10;;
25609;SDS011;13479;49.044;8.716;2022-11-12T05:27:26;22.13;;;6.07;;
25609;SDS011;13479;49.044;8.716;2022-11-12T05:29:51;24.63;;;6.83;;
25609;SDS011;13479;49.044;8.716;2022-11-12T05:32:17;51.80;;;7.33;;
25609;SDS011;13479;49.044;8.716;2022-11-12T05:34:42;20.70;;;6.10;;
25609;SDS011;13479;49.044;8.716;2022-11-12T05:37:09;24.30;;;6.20;;
25609;SDS011;13479;49.044;8.716;2022-11-12T05:39:35;20.37;;;6.27;;
25609;SDS011;13479;49.044;8.716;2022-11-12T05:42:01;35.53;;;7.67;;
25609;SDS011;13479;49.044;8.716;2022-11-12T05:44:27;26.00;;;6.20;;
25609;SDS011;13479;49.044;8.716;2022-11-12T05:46:52;13.50;;;5.80;;
25609;SDS011;13479;49.044;8.716;2022-11-12T05:49:17;11.03;;;5.73;;
25609;SDS011;13479;49.044;8.716;2022-11-12T05:51:43;19.63;;;6.07;;
25609;SDS011;13479;49.044;8.716;2022-11-12T05:54:08;7.67;;;5.47;;
25609;SDS011;13479;49.044;8.716;2022-11-12T05:56:35;7.57;;;5.00;;
25609;SDS011;13479;49.044;8.716;2022-11-12T05:59:02;25.93;;;5.13;;
25609;SDS011;13479;49.044;8.716;2022-11-12T06:01:29;6.97;;;4.43;;
25609;SDS011;13479;49.044;8.716;2022-11-12T06:03:54;11.03;;;5.97;;
25609;SDS011;13479;49.044;8.716;2022-11-12T06:06:20;16.77;;;7.07;;
25609;SDS011;13479;49.044;8.716;2022-11-12T06:08:45;17.03;;;6.77;;
25609;SDS011;13479;49.044;8.716;2022-11-12T06:11:11;8.63;;;5.43;;
25609;SDS011;13479;49.044;8.716;2022-11-12T06:13:36;8.17;;;5.27;;
25609;SDS011;13479;49.044;8.716;2022-11-12T06:16:01;10.83;;;5.77;;
25609;SDS011;13479;49.044;8.716;2022-11-12T06:18:26;8.40;;;5.40;;
25609;SDS011;13479;49.044;8.716;2022-11-12T06:20:52;6.97;;;5.20;;
25609;SDS011;13479;49.044;8.716;2022-11-12T06:23:37;7.87;;;5.43;;
25609;SDS011;13479;49.044;8.716;2022-11-12T06:26:02;9.33;;;6.10;;
25609;SDS011;13479;49.044;8.716;2022-11-12T06:28:28;10.37;;;6.40;;
25609;SDS011;13479;49.044;8.716;2022-11-12T06:30:53;9.90;;;6.27;;
25609;SDS011;13479;49.044;8.716;2022-11-12T06:33:19;8.07;;;5.67;;
25609;SDS011;13479;49.044;8.716;2022-11-12T06:35:44;9.73;;;6.50;;
25609;SDS011;13479;49.044;8.716;2022-11-12T06:38:10;10.30;;;6.70;;
25609;SDS011;13479;49.044;8.716;2022-11-12T06:40:35;8.67;;;6.07;;
25609;SDS011;13479;49.044;8.716;2022-11-12T06:43:01;8.27;;;5.87;;
25609;SDS011;13479;49.044;8.716;2022-11-12T06:45:26;7.97;;;5.93;;
25609;SDS011;13479;49.044;8.716;2022-11-12T06:47:51;19.60;;;6.57;;
25609;SDS011;13479;49.044;8.716;2022-11-12T06:50:16;23.27;;;6.80;;
25609;SDS011;13479;49.044;8.716;2022-11-12T06:52:42;76.00;;;8.23;;
25609;SDS011;13479;49.044;8.716;2022-11-12T06:55:07;106.63;;;9.97;;
25609;SDS011;13479;49.044;8.716;2022-11-12T06:57:33;54.70;;;8.73;;
25609;SDS011;13479;49.044;8.716;2022-11-12T06:59:58;113.93;;;11.53;;
25609;SDS011;13479;49.044;8.716;2022-11-12T07:02:24;38.80;;;7.37;;
25609;SDS011;13479;49.044;8.716;2022-11-12T07:04:49;49.13;;;9.63;;
25609;SDS011;13479;49.044;8.716;2022-11-12T07:07:14;42.00;;;8.20;;
25609;SDS011;13479;49.044;8.716;2022-11-12T07:09:40;110.80;;;12.23;;
25609;SDS011;13479;49.044;8.716;2022-11-12T07:12:05;19.37;;;9.00;;
25609;SDS011;13479;49.044;8.716;2022-11-12T07:14:30;207.23;;;14.80;;
25609;SDS011;13479;49.044;8.716;2022-11-12T07:16:56;47.27;;;8.20;;
25609;SDS011;13479;49.044;8.716;2022-11-12T07:19:21;57.40;;;8.77;;
25609;SDS011;13479;49.044;8.716;2022-11-12T07:21:46;33.73;;;7.50;;
25609;SDS011;13479;49.044;8.716;2022-11-12T07:24:12;165.40;;;12.80;;
25609;SDS011;13479;49.044;8.716;2022-11-12T07:26:37;19.67;;;7.23;;
25609;SDS011;13479;49.044;8.716;2022-11-12T07:29:02;19.33;;;6.43;;
25609;SDS011;13479;49.044;8.716;2022-11-12T07:31:27;32.57;;;6.03;;
25609;SDS011;13479;49.044;8.716;2022-11-12T07:33:53;60.30;;;8.30;;
25609;SDS011;13479;49.044;8.716;2022-11-12T07:36:19;33.47;;;6.93;;
25609;SDS011;13479;49.044;8.716;2022-11-12T07:38:45;27.27;;;7.30;;
25609;SDS011;13479;49.044;8.716;2022-11-12T07:41:15;123.97;;;9.87;;
25609;SDS011;13479;49.044;8.716;2022-11-12T07:43:43;22.67;;;6.63;;
25609;SDS011;13479;49.044;8.716;2022-11-12T07:46:10;26.67;;;6.43;;
25609;SDS011;13479;49.044;8.716;2022-11-12T07:48:38;64.93;;;7.80;;
25609;SDS011;13479;49.044;8.716;2022-11-12T07:51:05;43.73;;;8.57;;
25609;SDS011;13479;49.044;8.716;2022-11-12T07:53:41;72.47;;;10.00;;
25609;SDS011;13479;49.044;8.716;2022-11-12T07:56:08;61.80;;;9.10;;
25609;SDS011;13479;49.044;8.716;2022-11-12T07:58:35;133.70;;;15.03;;
25609;SDS011;13479;49.044;8.716;2022-11-12T08:01:22;46.80;;;8.27;;
25609;SDS011;13479;49.044;8.716;2022-11-12T08:04:01;17.27;;;6.60;;
25609;SDS011;13479;49.044;8.716;2022-11-12T08:06:28;9.93;;;5.80;;
25609;SDS011;13479;49.044;8.716;2022-11-12T08:08:55;29.43;;;7.70;;
25609;SDS011;13479;49.044;8.716;2022-11-12T08:11:22;18.43;;;6.97;;
25609;SDS011;13479;49.044;8.716;2022-11-12T08:13:48;10.50;;;6.03;;
25609;SDS011;13479;49.044;8.716;2022-11-12T08:16:14;12.67;;;6.67;;
25609;SDS011;13479;49.044;8.716;2022-11-12T08:18:40;16.63;;;6.57;;
25609;SDS011;13479;49.044;8.716;2022-11-12T08:21:07;11.30;;;6.90;;
25609;SDS011;13479;49.044;8.716;2022-11-12T08:23:35;11.05;;;5.15;;
25609;SDS011;13479;49.044;8.716;2022-11-12T08:26:01;14.90;;;6.47;;
25609;SDS011;13479;49.044;8.716;2022-11-12T08:28:28;8.45;;;5.93;;
25609;SDS011;13479;49.044;8.716;2022-11-12T08:30:53;13.90;;;6.70;;
25609;SDS011;13479;49.044;8.716;2022-11-12T08:33:19;11.38;;;6.05;;
25609;SDS011;13479;49.044;8.716;2022-11-12T08:35:44;8.77;;;5.55;;
25609;SDS011;13479;49.044;8.716;2022-11-12T08:38:10;7.65;;;5.10;;
25609;SDS011;13479;49.044;8.716;2022-11-12T08:40:37;8.27;;;5.63;;
25609;SDS011;13479;49.044;8.716;2022-11-12T08:43:03;7.15;;;4.25;;
25609;SDS011;13479;49.044;8.716;2022-11-12T08:45:30;6.85;;;4.15;;
25609;SDS011;13479;49.044;8.716;2022-11-12T08:48:04;7.15;;;4.57;;
25609;SDS011;13479;49.044;8.716;2022-11-12T08:50:32;6.85;;;4.35;;
25609;SDS011;13479;49.044;8.716;2022-11-12T08:52:58;6.85;;;4.35;;
25609;SDS011;13479;49.044;8.716;2022-11-12T08:55:28;8.57;;;4.65;;
25609;SDS011;13479;49.044;8.716;2022-11-12T08:57:54;5.78;;;4.45;;
25609;SDS011;13479;49.044;8.716;2022-11-12T09:00:20;7.15;;;4.50;;
25609;SDS011;13479;49.044;8.716;2022-11-12T09:02:45;8.75;;;5.20;;
25609;SDS011;13479;49.044;8.716;2022-11-12T09:05:10;9.93;;;5.20;;
25609;SDS011;13479;49.044;8.716;2022-11-12T09:07:35;7.13;;;5.00;;
25609;SDS011;13479;49.044;8.716;2022-11-12T09:10:01;5.63;;;4.32;;
25609;SDS011;13479;49.044;8.716;2022-11-12T09:12:26;6.40;;;3.83;;
25609;SDS011;13479;49.044;8.716;2022-11-12T09:14:52;6.43;;;4.60;;
25609;SDS011;13479;49.044;8.716;2022-11-12T09:17:17;5.18;;;4.10;;
25609;SDS011;13479;49.044;8.716;2022-11-12T09:19:42;5.47;;;4.05;;
25609;SDS011;13479;49.044;8.716;2022-11-12T09:22:08;4.97;;;3.92;;
25609;SDS011;13479;49.044;8.716;2022-11-12T09:24:33;7.18;;;4.38;;
25609;SDS011;13479;49.044;8.716;2022-11-12T09:26:58;7.45;;;4.30;;
25609;SDS011;13479;49.044;8.716;2022-11-12T09:29:24;5.82;;;4.20;;
25609;SDS011;13479;49.044;8.716;2022-11-12T09:31:49;7.07;;;4.47;;
25609;SDS011;13479;49.044;8.716;2022-11-12T09:34:15;5.80;;;4.28;;
25609;SDS011;13479;49.044;8.716;2022-11-12T09:36:40;6.80;;;5.07;;
25609;SDS011;13479;49.044;8.716;2022-11-12T09:39:05;7.45;;;4.32;;
25609;SDS011;13479;49.044;8.716;2022-11-12T09:41:49;4.75;;;4.25;;
25609;SDS011;13479;49.044;8.716;2022-11-12T09:44:15;4.63;;;3.80;;
25609;SDS011;13479;49.044;8.716;2022-11-12T09:47:01;7.10;;;4.70;;
25609;SDS011;13479;49.044;8.716;2022-11-12T09:49:40;6.07;;;4.45;;
25609;SDS011;13479;49.044;8.716;2022-11-12T09:54:43;5.53;;;4.55;;
25609;SDS011;13479;49.044;8.716;2022-11-12T09:57:12;7.22;;;5.95;;
25609;SDS011;13479;49.044;8.716;2022-11-12T09:59:38;8.95;;;5.72;;
25609;SDS011;13479;49.044;8.716;2022-11-12T10:02:25;8.80;;;5.97;;
25609;SDS011;13479;49.044;8.716;2022-11-12T10:07:55;10.75;;;6.03;;
25609;SDS011;13479;49.044;8.716;2022-11-12T10:10:46;8.10;;;6.07;;
25609;SDS011;13479;49.044;8.716;2022-11-12T10:13:23;8.45;;;5.80;;
25609;SDS011;13479;49.044;8.716;2022-11-12T10:24:21;10.88;;;6.30;;
25609;SDS011;13479;49.044;8.716;2022-11-12T10:26:48;11.40;;;6.90;;
25609;SDS011;13479;49.044;8.716;2022-11-12T10:29:31;12.27;;;6.53;;
25609;SDS011;13479;49.044;8.716;2022-11-12T10:32:03;8.27;;;6.20;;
25609;SDS011;13479;49.044;8.716;2022-11-12T10:34:29;8.40;;;6.53;;
25609;SDS011;13479;49.044;8.716;2022-11-12T10:37:04;12.75;;;6.65;;
25609;SDS011;13479;49.044;8.716;2022-11-12T10:39:37;9.77;;;6.70;;
25609;SDS011;13479;49.044;8.716;2022-11-12T10:42:12;7.97;;;6.13;;
25609;SDS011;13479;49.044;8.716;2022-11-12T10:44:39;8.57;;;6.38;;
25609;SDS011;13479;49.044;8.716;2022-11-12T10:49:58;9.02;;;6.35;;
25609;SDS011;13479;49.044;8.716;2022-11-12T10:52:28;9.63;;;6.93;;
25609;SDS011;13479;49.044;8.716;2022-11-12T10:55:02;11.75;;;7.53;;
25609;SDS011;13479;49.044;8.716;2022-11-12T10:57:31;10.02;;;6.70;;
25609;SDS011;13479;49.044;8.716;2022-11-12T11:02:32;8.35;;;6.50;;
25609;SDS011;13479;49.044;8.716;2022-11-12T11:04:58;9.48;;;6.82;;
25609;SDS011;13479;49.044;8.716;2022-11-12T11:07:24;9.05;;;6.95;;
25609;SDS011;13479;49.044;8.716;2022-11-12T11:09:54;10.40;;;7.18;;
25609;SDS011;13479;49.044;8.716;2022-11-12T11:12:26;8.15;;;6.28;;
25609;SDS011;13479;49.044;8.716;2022-11-12T11:17:33;10.25;;;6.82;;
25609;SDS011;13479;49.044;8.716;2022-11-12T11:19:59;9.45;;;6.95;;
25609;SDS011;13479;49.044;8.716;2022-11-12T11:22:29;9.60;;;7.07;;
25609;SDS011;13479;49.044;8.716;2022-11-12T11:27:40;9.40;;;6.55;;
25609;SDS011;13479;49.044;8.716;2022-11-12T11:35:33;10.25;;;7.32;;
25609;SDS011;13479;49.044;8.716;2022-11-12T11:38:12;10.85;;;7.03;;
25609;SDS011;13479;49.044;8.716;2022-11-12T11:40:42;9.80;;;7.93;;
25609;SDS011;13479;49.044;8.716;2022-11-12T11:43:41;10.85;;;6.97;;
25609;SDS011;13479;49.044;8.716;2022-11-12T11:46:13;9.95;;;7.32;;
25609;SDS011;13479;49.044;8.716;2022-11-12T11:48:54;9.30;;;7.18;;
25609;SDS011;13479;49.044;8.716;2022-11-12T11:51:44;11.32;;;7.60;;
25609;SDS011;13479;49.044;8.716;2022-11-12T11:57:01;10.23;;;7.63;;
25609;SDS011;13479;49.044;8.716;2022-11-12T11:59:44;9.07;;;7.32;;
25609;SDS011;13479;49.044;8.716;2022-11-12T12:08:03;10.55;;;6.93;;
25609;SDS011;13479;49.044;8.716;2022-11-12T12:22:02;9.60;;;7.57;;
25609;SDS011;13479;49.044;8.716;2022-11-12T12:24:40;10.23;;;7.80;;
25609;SDS011;13479;49.044;8.716;2022-11-12T12:29:50;11.25;;;8.00;;
25609;SDS011;13479;49.044;8.716;2022-11-12T12:32:22;11.05;;;8.00;;
25609;SDS011;13479;49.044;8.716;2022-11-12T12:34:58;11.02;;;8.40;;
25609;SDS011;13479;49.044;8.716;2022-11-12T12:37:38;11.23;;;7.68;;
25609;SDS011;13479;49.044;8.716;2022-11-12T12:40:15;11.57;;;7.55;;
25609;SDS011;13479;49.044;8.716;2022-11-12T12:42:51;12.90;;;7.80;;
25609;SDS011;13479;49.044;8.716;2022-11-12T12:48:17;11.18;;;7.82;;
25609;SDS011;13479;49.044;8.716;2022-11-12T12:50:43;9.77;;;7.35;;
25609;SDS011;13479;49.044;8.716;2022-11-12T12:55:42;11.80;;;7.63;;
25609;SDS011;13479;49.044;8.716;2022-11-12T13:03:43;10.75;;;8.32;;
25609;SDS011;13479;49.044;8.716;2022-11-12T13:06:34;12.07;;;8.20;;
25609;SDS011;13479;49.044;8.716;2022-11-12T13:19:32;12.32;;;8.93;;
25609;SDS011;13479;49.044;8.716;2022-11-12T13:30:05;11.40;;;7.22;;
25609;SDS011;13479;49.044;8.716;2022-11-12T13:40:20;10.98;;;7.90;;
25609;SDS011;13479;49.044;8.716;2022-11-12T13:42:50;11.90;;;8.30;;
25609;SDS011;13479;49.044;8.716;2022-11-12T13:45:17;9.95;;;7.80;;
25609;SDS011;13479;49.044;8.716;2022-11-12T13:47:45;10.88;;;7.82;;
25609;SDS011;13479;49.044;8.716;2022-11-12T13:50:12;12.80;;;9.30;;
25609;SDS011;13479;49.044;8.716;2022-11-12T13:52:41;11.70;;;8.20;;
25609;SDS011;13479;49.044;8.716;2022-11-12T13:57:40;11.52;;;8.68;;
25609;SDS011;13479;49.044;8.716;2022-11-12T14:02:56;12.10;;;8.52;;
25609;SDS011;13479;49.044;8.716;2022-11-12T14:05:28;13.80;;;8.48;;
25609;SDS011;13479;49.044;8.716;2022-11-12T14:08:06;12.02;;;8.95;;
25609;SDS011;13479;49.044;8.716;2022-11-12T14:13:52;11.77;;;9.32;;
25609;SDS011;13479;49.044;8.716;2022-11-12T14:16:27;12.18;;;8.77;;
25609;SDS011;13479;49.044;8.716;2022-11-12T14:19:17;14.55;;;9.30;;
25609;SDS011;13479;49.044;8.716;2022-11-12T14:21:58;14.02;;;9.45;;
25609;SDS011;13479;49.044;8.716;2022-11-12T14:24:25;12.32;;;9.60;;
25609;SDS011;13479;49.044;8.716;2022-11-12T14:26:50;13.73;;;9.82;;
25609;SDS011;13479;49.044;8.716;2022-11-12T14:29:16;12.65;;;10.23;;
25609;SDS011;13479;49.044;8.716;2022-11-12T14:31:42;14.13;;;9.50;;
25609;SDS011;13479;49.044;8.716;2022-11-12T14:34:21;12.25;;;9.05;;
25609;SDS011;13479;49.044;8.716;2022-11-12T14:36:50;13.32;;;9.90;;
25609;SDS011;13479;49.044;8.716;2022-11-12T14:39:19;14.15;;;9.25;;
25609;SDS011;13479;49.044;8.716;2022-11-12T14:41:45;14.05;;;10.60;;
25609;SDS011;13479;49.044;8.716;2022-11-12T14:44:15;15.32;;;9.27;;
25609;SDS011;13479;49.044;8.716;2022-11-12T14:46:47;13.23;;;9.40;;
25609;SDS011;13479;49.044;8.716;2022-11-12T14:49:20;14.30;;;9.68;;
25609;SDS011;13479;49.044;8.716;2022-11-12T14:51:55;13.73;;;9.90;;
25609;SDS011;13479;49.044;8.716;2022-11-12T14:54:32;13.35;;;9.73;;
25609;SDS011;13479;49.044;8.716;2022-11-12T14:57:04;12.60;;;9.73;;
25609;SDS011;13479;49.044;8.716;2022-11-12T14:59:29;13.48;;;9.85;;
25609;SDS011;13479;49.044;8.716;2022-11-12T15:02:00;15.20;;;11.18;;
25609;SDS011;13479;49.044;8.716;2022-11-12T15:04:43;15.50;;;11.10;;
25609;SDS011;13479;49.044;8.716;2022-11-12T15:07:21;15.85;;;10.18;;
25609;SDS011;13479;49.044;8.716;2022-11-12T15:09:56;14.63;;;9.93;;
25609;SDS011;13479;49.044;8.716;2022-11-12T15:12:23;13.13;;;10.23;;
25609;SDS011;13479;49.044;8.716;2022-11-12T15:14:50;15.98;;;11.68;;
25609;SDS011;13479;49.044;8.716;2022-11-12T15:17:38;16.77;;;11.52;;
25609;SDS011;13479;49.044;8.716;2022-11-12T15:20:04;17.08;;;11.50;;
25609;SDS011;13479;49.044;8.716;2022-11-12T15:22:40;17.35;;;13.32;;
25609;SDS011;13479;49.044;8.716;2022-11-12T15:25:22;18.35;;;13.00;;
25609;SDS011;13479;49.044;8.716;2022-11-12T15:27:50;19.08;;;13.50;;
25609;SDS011;13479;49.044;8.716;2022-11-12T15:32:44;21.48;;;13.98;;
25609;SDS011;13479;49.044;8.716;2022-11-12T15:35:20;23.00;;;13.20;;
25609;SDS011;13479;49.044;8.716;2022-11-12T15:37:56;22.73;;;14.18;;
25609;SDS011;13479;49.044;8.716;2022-11-12T15:40:29;18.52;;;13.63;;
25609;SDS011;13479;49.044;8.716;2022-11-12T15:42:56;17.35;;;12.52;;
25609;SDS011;13479;49.044;8.716;2022-11-12T15:45:21;23.05;;;14.38;;
25609;SDS011;13479;49.044;8.716;2022-11-12T15:47:47;22.33;;;13.50;;
25609;SDS011;13479;49.044;8.716;2022-11-12T15:52:38;17.48;;;12.65;;
25609;SDS011;13479;49.044;8.716;2022-11-12T15:55:04;20.23;;;13.55;;
25609;SDS011;13479;49.044;8.716;2022-11-12T15:57:30;21.55;;;13.60;;
25609;SDS011;13479;49.044;8.716;2022-11-12T15:59:59;23.10;;;14.20;;
25609;SDS011;13479;49.044;8.716;2022-11-12T16:02:28;22.23;;;15.40;;
25609;SDS011;13479;49.044;8.716;2022-11-12T16:04:54;20.77;;;13.73;;
25609;SDS011;13479;49.044;8.716;2022-11-12T16:07:19;18.97;;;12.97;;
25609;SDS011;13479;49.044;8.716;2022-11-12T16:09:44;20.50;;;13.73;;
25609;SDS011;13479;49.044;8.716;2022-11-12T16:12:10;26.90;;;15.95;;
25609;SDS011;13479;49.044;8.716;2022-11-12T16:14:37;26.63;;;15.02;;
25609;SDS011;13479;49.044;8.716;2022-11-12T16:17:03;28.92;;;14.52;;
25609;SDS011;13479;49.044;8.716;2022-11-12T16:19:32;29.13;;;15.00;;
25609;SDS011;13479;49.044;8.716;2022-11-12T16:22:01;24.88;;;16.17;;
25609;SDS011;13479;49.044;8.716;2022-11-12T16:24:27;24.40;;;16.58;;
25609;SDS011;13479;49.044;8.716;2022-11-12T16:26:53;24.67;;;15.07;;
25609;SDS011;13479;49.044;8.716;2022-11-12T16:29:18;23.50;;;14.70;;
25609;SDS011;13479;49.044;8.716;2022-11-12T16:31:44;23.73;;;14.95;;
25609;SDS011;13479;49.044;8.716;2022-11-12T16:34:09;39.33;;;14.98;;
25609;SDS011;13479;49.044;8.716;2022-11-12T16:36:36;40.38;;;16.35;;
25609;SDS011;13479;49.044;8.716;2022-11-12T16:39:02;36.67;;;13.95;;
25609;SDS011;13479;49.044;8.716;2022-11-12T16:41:28;37.35;;;16.52;;
25609;SDS011;13479;49.044;8.716;2022-11-12T16:43:53;35.80;;;15.30;;
25609;SDS011;13479;49.044;8.716;2022-11-12T16:48:52;89.65;;;17.58;;
25609;SDS011;13479;49.044;8.716;2022-11-12T16:51:19;71.88;;;23.58;;
25609;SDS011;13479;49.044;8.716;2022-11-12T16:53:45;125.95;;;39.63;;
25609;SDS011;13479;49.044;8.716;2022-11-12T16:56:11;47.75;;;20.63;;
25609;SDS011;13479;49.044;8.716;2022-11-12T16:58:38;32.92;;;15.30;;
25609;SDS011;13479;49.044;8.716;2022-11-12T17:01:05;71.13;;;14.00;;
25609;SDS011;13479;49.044;8.716;2022-11-12T17:03:31;258.30;;;19.00;;
25609;SDS011;13479;49.044;8.716;2022-11-12T17:05:56;162.30;;;18.35;;
25609;SDS011;13479;49.044;8.716;2022-11-12T17:08:21;121.47;;;19.02;;
25609;SDS011;13479;49.044;8.716;2022-11-12T17:10:46;85.18;;;15.90;;
25609;SDS011;13479;49.044;8.716;2022-11-12T17:13:13;74.15;;;16.98;;
25609;SDS011;13479;49.044;8.716;2022-11-12T17:15:39;60.92;;;15.98;;
25609;SDS011;13479;49.044;8.716;2022-11-12T17:18:04;68.03;;;16.25;;
25609;SDS011;13479;49.044;8.716;2022-11-12T17:20:31;139.02;;;18.20;;
25609;SDS011;13479;49.044;8.716;2022-11-12T17:22:57;52.00;;;15.88;;
25609;SDS011;13479;49.044;8.716;2022-11-12T17:25:23;63.15;;;14.85;;
25609;SDS011;13479;49.044;8.716;2022-11-12T17:27:48;87.05;;;13.63;;
25609;SDS011;13479;49.044;8.716;2022-11-12T17:30:13;132.07;;;16.55;;
25609;SDS011;13479;49.044;8.716;2022-11-12T17:32:38;89.30;;;18.20;;
25609;SDS011;13479;49.044;8.716;2022-11-12T17:35:04;58.40;;;15.18;;
25609;SDS011;13479;49.044;8.716;2022-11-12T17:37:30;48.25;;;14.50;;
25609;SDS011;13479;49.044;8.716;2022-11-12T17:39:55;68.35;;;14.85;;
25609;SDS011;13479;49.044;8.716;2022-11-12T17:42:20;100.25;;;17.80;;
25609;SDS011;13479;49.044;8.716;2022-11-12T17:44:45;94.38;;;16.88;;
25609;SDS011;13479;49.044;8.716;2022-11-12T17:47:11;68.30;;;14.38;;
25609;SDS011;13479;49.044;8.716;2022-11-12T17:49:36;68.38;;;12.07;;
25609;SDS011;13479;49.044;8.716;2022-11-12T17:52:01;64.05;;;23.38;;
25609;SDS011;13479;49.044;8.716;2022-11-12T17:54:26;69.40;;;12.30;;
25609;SDS011;13479;49.044;8.716;2022-11-12T17:56:52;121.78;;;16.05;;
25609;SDS011;13479;49.044;8.716;2022-11-12T17:59:17;55.72;;;12.80;;
25609;SDS011;13479;49.044;8.716;2022-11-12T18:01:42;104.75;;;18.02;;
25609;SDS011;13479;49.044;8.716;2022-11-12T18:04:08;179.77;;;20.40;;
25609;SDS011;13479;49.044;8.716;2022-11-12T18:06:34;200.98;;;17.40;;
25609;SDS011;13479;49.044;8.716;2022-11-12T18:09:00;118.20;;;17.25;;
25609;SDS011;13479;49.044;8.716;2022-11-12T18:11:31;152.60;;;19.08;;
25609;SDS011;13479;49.044;8.716;2022-11-12T18:14:07;108.03;;;16.40;;
25609;SDS011;13479;49.044;8.716;2022-11-12T18:16:32;102.03;;;14.77;;
25609;SDS011;13479;49.044;8.716;2022-11-12T18:18:58;144.65;;;21.33;;
25609;SDS011;13479;49.044;8.716;2022-11-12T18:21:24;67.13;;;13.80;;
25609;SDS011;13479;49.044;8.716;2022-11-12T18:23:50;121.75;;;17.83;;
25609;SDS011;13479;49.044;8.716;2022-11-12T18:26:16;124.13;;;19.77;;
25609;SDS011;13479;49.044;8.716;2022-11-12T18:28:55;117.40;;;16.88;;
25609;SDS011;13479;49.044;8.716;2022-11-12T18:31:23;60.43;;;13.47;;
25609;SDS011;13479;49.044;8.716;2022-11-12T18:33:49;101.88;;;15.50;;
25609;SDS011;13479;49.044;8.716;2022-11-12T18:36:16;96.03;;;14.93;;
25609;SDS011;13479;49.044;8.716;2022-11-12T18:38:44;114.55;;;13.88;;
25609;SDS011;13479;49.044;8.716;2022-11-12T18:41:12;59.05;;;10.88;;
25609;SDS011;13479;49.044;8.716;2022-11-12T18:43:39;183.50;;;16.20;;
25609;SDS011;13479;49.044;8.716;2022-11-12T18:46:06;200.43;;;18.67;;
25609;SDS011;13479;49.044;8.716;2022-11-12T18:48:33;82.13;;;15.00;;
25609;SDS011;13479;49.044;8.716;2022-11-12T18:51:00;94.47;;;15.07;;
25609;SDS011;13479;49.044;8.716;2022-11-12T18:53:27;175.40;;;17.83;;
25609;SDS011;13479;49.044;8.716;2022-11-12T18:55:54;170.90;;;17.00;;
25609;SDS011;13479;49.044;8.716;2022-11-12T18:58:22;124.97;;;18.13;;
25609;SDS011;13479;49.044;8.716;2022-11-12T19:00:47;65.23;;;13.60;;
25609;SDS011;13479;49.044;8.716;2022-11-12T19:03:13;124.63;;;15.82;;
25609;SDS011;13479;49.044;8.716;2022-11-12T19:05:38;200.73;;;20.33;;
25609;SDS011;13479;49.044;8.716;2022-11-12T19:08:03;87.22;;;14.00;;
25609;SDS011;13479;49.044;8.716;2022-11-12T19:10:29;62.40;;;12.48;;
25609;SDS011;13479;49.044;8.716;2022-11-12T19:12:54;102.40;;;16.25;;
25609;SDS011;13479;49.044;8.716;2022-11-12T19:15:19;157.80;;;17.45;;
25609;SDS011;13479;49.044;8.716;2022-11-12T19:17:45;162.37;;;16.43;;
25609;SDS011;13479;49.044;8.716;2022-11-12T19:20:10;45.95;;;11.80;;
25609;SDS011;13479;49.044;8.716;2022-11-12T19:22:35;64.07;;;14.27;;
25609;SDS011;13479;49.044;8.716;2022-11-12T19:25:00;101.18;;;15.25;;
25609;SDS011;13479;49.044;8.716;2022-11-12T19:27:27;164.37;;;20.03;;
25609;SDS011;13479;49.044;8.716;2022-11-12T19:29:52;45.40;;;12.73;;
25609;SDS011;13479;49.044;8.716;2022-11-12T19:32:18;66.72;;;13.13;;
25609;SDS011;13479;49.044;8.716;2022-11-12T19:34:44;53.65;;;12.68;;
25609;SDS011;13479;49.044;8.716;2022-11-12T19:37:09;57.17;;;12.35;;
25609;SDS011;13479;49.044;8.716;2022-11-12T19:39:34;137.07;;;16.15;;
25609;SDS011;13479;49.044;8.716;2022-11-12T19:42:00;74.67;;;14.67;;
25609;SDS011;13479;49.044;8.716;2022-11-12T19:44:25;69.77;;;14.90;;
25609;SDS011;13479;49.044;8.716;2022-11-12T19:46:50;78.18;;;14.32;;
25609;SDS011;13479;49.044;8.716;2022-11-12T19:49:15;48.83;;;14.68;;
25609;SDS011;13479;49.044;8.716;2022-11-12T19:51:40;122.70;;;15.25;;
25609;SDS011;13479;49.044;8.716;2022-11-12T19:54:06;35.93;;;10.83;;
25609;SDS011;13479;49.044;8.716;2022-11-12T19:56:32;49.05;;;11.52;;
25609;SDS011;13479;49.044;8.716;2022-11-12T19:58:58;100.80;;;13.70;;
25609;SDS011;13479;49.044;8.716;2022-11-12T20:01:23;86.80;;;15.33;;
25609;SDS011;13479;49.044;8.716;2022-11-12T20:03:48;131.82;;;19.80;;
25609;SDS011;13479;49.044;8.716;2022-11-12T20:06:15;80.43;;;14.95;;
25609;SDS011;13479;49.044;8.716;2022-11-12T20:08:44;90.80;;;13.47;;
25609;SDS011;13479;49.044;8.716;2022-11-12T20:11:10;46.55;;;12.68;;
25609;SDS011;13479;49.044;8.716;2022-11-12T20:13:36;64.75;;;10.80;;
25609;SDS011;13479;49.044;8.716;2022-11-12T20:16:05;148.32;;;17.50;;
25609;SDS011;13479;49.044;8.716;2022-11-12T20:18:36;132.93;;;12.87;;
25609;SDS011;13479;49.044;8.716;2022-11-12T20:21:02;36.50;;;10.13;;
25609;SDS011;13479;49.044;8.716;2022-11-12T20:23:33;121.30;;;14.00;;
25609;SDS011;13479;49.044;8.716;2022-11-12T20:26:00;95.07;;;14.00;;
25609;SDS011;13479;49.044;8.716;2022-11-12T20:28:27;70.47;;;12.47;;
25609;SDS011;13479;49.044;8.716;2022-11-12T20:31:00;68.33;;;11.90;;
25609;SDS011;13479;49.044;8.716;2022-11-12T20:33:26;72.70;;;12.67;;
25609;SDS011;13479;49.044;8.716;2022-11-12T20:35:52;64.07;;;13.32;;
25609;SDS011;13479;49.044;8.716;2022-11-12T20:38:18;240.87;;;22.67;;
25609;SDS011;13479;49.044;8.716;2022-11-12T20:40:44;69.63;;;10.73;;
25609;SDS011;13479;49.044;8.716;2022-11-12T20:43:09;149.23;;;13.50;;
25609;SDS011;13479;49.044;8.716;2022-11-12T20:45:34;59.97;;;11.10;;
25609;SDS011;13479;49.044;8.716;2022-11-12T20:48:00;100.97;;;12.80;;
25609;SDS011;13479;49.044;8.716;2022-11-12T20:50:25;29.17;;;10.20;;
25609;SDS011;13479;49.044;8.716;2022-11-12T20:52:51;70.77;;;11.63;;
25609;SDS011;13479;49.044;8.716;2022-11-12T20:55:16;124.90;;;14.60;;
25609;SDS011;13479;49.044;8.716;2022-11-12T20:57:41;60.43;;;11.30;;
25609;SDS011;13479;49.044;8.716;2022-11-12T21:00:07;55.47;;;9.73;;
25609;SDS011;13479;49.044;8.716;2022-11-12T21:02:32;179.25;;;18.15;;
25609;SDS011;13479;49.044;8.716;2022-11-12T21:04:58;37.70;;;11.27;;
25609;SDS011;13479;49.044;8.716;2022-11-12T21:07:23;60.67;;;13.13;;
25609;SDS011;13479;49.044;8.716;2022-11-12T21:09:48;40.83;;;13.73;;
25609;SDS011;13479;49.044;8.716;2022-11-12T21:12:14;59.73;;;15.33;;
25609;SDS011;13479;49.044;8.716;2022-11-12T21:14:39;86.33;;;18.57;;
25609;SDS011;13479;49.044;8.716;2022-11-12T21:17:04;186.93;;;23.05;;
25609;SDS011;13479;49.044;8.716;2022-11-12T21:19:30;105.43;;;18.43;;
25609;SDS011;13479;49.044;8.716;2022-11-12T21:21:55;104.37;;;16.97;;